Time;durP1;ratioP1;P1;durP2;ratioP2;P2;SDS_P1;SDS_P2;PMS_P1;PMS_P2;Temp;Humidity;BMP_temperature;BMP_pressure;BME280_temperature;BME280_humidity;BME280_pressure;Samples;Min_cycle;Max_cycle;Signal;HPM_P1;HPM_P2
2021/08/02 00:00:20;;;;;;;18.20;4.18;;;27.00;58.90;;;;;;5075964;28;20127;-81
2021/08/02 00:02:49;;;;;;;14.93;3.35;;;27.00;58.90;;;;;;5075963;28;20099;-80
2021/08/02 00:05:15;;;;;;;23.92;4.80;;;27.00;59.00;;;;;;5076144;28;20024;-82
2021/08/02 00:07:42;;;;;;;17.13;4.47;;;26.90;57.80;;;;;;5076117;28;20028;-79
2021/08/02 00:10:11;;;;;;;16.70;4.55;;;26.90;58.20;;;;;;5076135;28;20027;-82
2021/08/02 00:12:46;;;;;;;19.50;4.47;;;26.90;58.00;;;;;;5075779;28;20103;-81
2021/08/02 00:15:12;;;;;;;14.95;3.80;;;26.90;58.80;;;;;;5076240;28;20021;-80
2021/08/02 00:17:43;;;;;;;19.23;4.38;;;26.90;57.90;;;;;;5074441;28;20028;-81
2021/08/02 00:20:18;;;;;;;21.98;4.75;;;26.90;57.80;;;;;;5074522;28;20482;-81
2021/08/02 00:22:44;;;;;;;18.70;4.32;;;26.90;58.00;;;;;;5075610;28;20059;-81
2021/08/02 00:25:12;;;;;;;24.35;4.90;;;26.90;58.90;;;;;;5073984;28;20408;-81
2021/08/02 00:27:38;;;;;;;18.10;4.20;;;26.90;58.60;;;;;;5075414;28;20138;-82
2021/08/02 00:30:06;;;;;;;16.30;3.90;;;27.00;58.90;;;;;;5074389;28;20032;-83
2021/08/02 00:32:34;;;;;;;18.30;4.35;;;27.00;57.90;;;;;;5074026;28;20472;-80
2021/08/02 00:35:02;;;;;;;16.70;5.03;;;27.00;57.90;;;;;;5073344;28;20028;-82
2021/08/02 00:37:40;;;;;;;15.68;4.20;;;26.90;58.70;;;;;;5074473;28;20035;-81
2021/08/02 00:40:24;;;;;;;18.85;4.15;;;26.90;58.80;;;;;;5075942;28;20144;-80
2021/08/02 00:43:09;;;;;;;27.00;4.28;;;26.80;58.50;;;;;;5074538;28;20055;-81
2021/08/02 00:45:35;;;;;;;21.23;4.22;;;26.80;58.40;;;;;;5074324;28;20042;-81
2021/08/02 00:48:16;;;;;;;13.65;4.15;;;26.80;58.90;;;;;;5081076;28;20032;-81
2021/08/02 00:50:48;;;;;;;14.32;4.57;;;26.70;59.00;;;;;;5087308;28;20527;-80
2021/08/02 00:53:19;;;;;;;15.35;4.75;;;26.70;59.20;;;;;;5080564;28;20029;-81
2021/08/02 00:55:57;;;;;;;18.30;3.67;;;26.70;58.90;;;;;;5057839;28;20025;-80
2021/08/02 00:58:25;;;;;;;18.73;4.15;;;26.70;59.40;;;;;;5074835;28;20032;-81
2021/08/02 01:00:52;;;;;;;24.15;5.22;;;26.70;59.50;;;;;;5073259;28;20036;-82
2021/08/02 01:03:19;;;;;;;15.75;4.05;;;26.70;59.40;;;;;;5073617;28;20027;-82
2021/08/02 01:05:49;;;;;;;17.13;4.10;;;26.60;59.50;;;;;;5074452;28;20040;-80
2021/08/02 01:08:24;;;;;;;17.27;3.72;;;26.60;59.40;;;;;;5074636;28;20023;-81
2021/08/02 01:11:01;;;;;;;13.93;4.28;;;26.70;59.50;;;;;;5074638;28;20028;-81
2021/08/02 01:13:31;;;;;;;16.80;4.25;;;26.70;59.50;;;;;;5074606;28;20017;-81
2021/08/02 01:16:00;;;;;;;19.35;4.40;;;26.70;59.40;;;;;;5074503;28;20020;-81
2021/08/02 01:18:29;;;;;;;20.98;4.13;;;26.70;58.10;;;;;;5073067;28;20512;-80
2021/08/02 01:21:02;;;;;;;27.27;5.30;;;26.70;58.00;;;;;;5074298;28;20377;-81
2021/08/02 01:23:28;;;;;;;16.42;4.10;;;26.70;58.50;;;;;;5075385;28;20055;-80
2021/08/02 01:25:56;;;;;;;17.95;4.28;;;26.60;59.20;;;;;;5093215;28;20048;-81
2021/08/02 01:28:25;;;;;;;17.45;4.10;;;26.60;59.30;;;;;;5093441;28;20025;-82
2021/08/02 01:30:54;;;;;;;16.17;4.18;;;26.60;59.60;;;;;;5088644;28;20090;-81
2021/08/02 01:33:28;;;;;;;24.90;4.50;;;26.50;58.90;;;;;;5074575;28;20017;-81
2021/08/02 01:35:56;;;;;;;20.95;4.88;;;26.50;59.60;;;;;;5072860;28;20062;-81
2021/08/02 01:38:24;;;;;;;15.00;3.70;;;26.60;59.00;;;;;;5074465;28;20025;-81
2021/08/02 01:40:50;;;;;;;17.45;4.03;;;26.60;58.90;;;;;;5074448;28;20099;-80
2021/08/02 01:43:15;;;;;;;16.30;4.57;;;26.60;59.20;;;;;;5074608;28;20031;-82
2021/08/02 01:46:06;;;;;;;14.57;3.97;;;26.60;59.80;;;;;;5073597;28;20443;-80
2021/08/02 01:49:08;;;;;;;18.05;4.50;;;26.60;59.70;;;;;;5074103;28;20461;-81
2021/08/02 01:51:41;;;;;;;18.38;3.80;;;26.50;59.50;;;;;;5074035;28;20032;-81
2021/08/02 01:54:12;;;;;;;21.83;4.57;;;26.50;59.50;;;;;;5074017;28;20070;-83
2021/08/02 01:56:59;;;;;;;18.35;4.60;;;26.50;59.50;;;;;;5073961;28;20025;-82
2021/08/02 01:59:29;;;;;;;20.67;4.53;;;26.50;59.60;;;;;;5074389;28;20028;-80
2021/08/02 02:02:02;;;;;;;17.13;4.13;;;26.50;60.10;;;;;;5074178;28;20465;-82
2021/08/02 02:04:34;;;;;;;23.85;4.93;;;26.40;59.10;;;;;;5073866;28;20075;-81
2021/08/02 02:07:01;;;;;;;16.75;4.57;;;26.40;59.90;;;;;;5073736;28;20055;-82
2021/08/02 02:09:30;;;;;;;15.65;4.20;;;26.40;60.10;;;;;;5073857;28;20028;-81
2021/08/02 02:11:59;;;;;;;18.20;4.55;;;26.40;60.00;;;;;;5074008;28;20013;-81
2021/08/02 02:14:28;;;;;;;16.67;4.93;;;26.40;59.30;;;;;;5074219;28;20471;-81
2021/08/02 02:17:01;;;;;;;18.75;5.30;;;26.50;59.90;;;;;;5073761;28;20490;-81
2021/08/02 02:19:28;;;;;;;16.20;4.93;;;26.50;59.40;;;;;;5072696;28;20445;-79
2021/08/02 02:21:55;;;;;;;18.58;4.57;;;26.50;59.80;;;;;;5072680;28;20044;-80
2021/08/02 02:24:22;;;;;;;20.52;5.15;;;26.50;59.70;;;;;;5072696;28;20025;-81
2021/08/02 02:26:49;;;;;;;21.27;5.20;;;26.40;60.00;;;;;;5073771;28;20094;-81
2021/08/02 02:29:17;;;;;;;18.95;4.53;;;26.40;60.10;;;;;;5072725;28;20025;-81
2021/08/02 02:31:46;;;;;;;20.05;4.80;;;26.30;60.20;;;;;;5072463;28;20020;-82
2021/08/02 02:34:14;;;;;;;19.40;4.28;;;26.20;60.40;;;;;;5072549;28;20499;-83
2021/08/02 02:36:41;;;;;;;19.80;5.40;;;26.20;60.40;;;;;;5072187;28;20358;-81
2021/08/02 02:39:08;;;;;;;17.58;4.28;;;26.30;60.30;;;;;;5073532;28;20028;-81
2021/08/02 02:41:34;;;;;;;20.27;4.57;;;26.30;60.30;;;;;;5072532;28;20032;-81
2021/08/02 02:44:02;;;;;;;15.68;3.92;;;26.30;60.40;;;;;;5073495;28;20489;-82
2021/08/02 02:46:28;;;;;;;19.17;5.30;;;26.30;60.20;;;;;;5073966;28;20087;-80
2021/08/02 02:48:55;;;;;;;17.00;3.85;;;26.40;60.30;;;;;;5073240;28;20020;-78
2021/08/02 02:51:22;;;;;;;16.92;4.03;;;26.30;60.30;;;;;;5079228;28;20017;-80
2021/08/02 02:53:48;;;;;;;18.52;4.03;;;26.40;60.30;;;;;;5093234;28;20085;-81
2021/08/02 02:56:16;;;;;;;12.95;3.92;;;26.40;60.00;;;;;;5074216;28;20031;-79
2021/08/02 02:58:42;;;;;;;18.58;4.25;;;26.40;60.10;;;;;;5075121;28;20020;-81
2021/08/02 03:01:12;;;;;;;19.45;4.25;;;26.40;60.00;;;;;;5077079;28;20036;-82
2021/08/02 03:03:42;;;;;;;14.55;4.00;;;26.40;60.20;;;;;;5076030;28;20062;-82
2021/08/02 03:06:09;;;;;;;19.58;3.92;;;26.40;59.60;;;;;;5077126;28;20482;-83
2021/08/02 03:15:20;;;;;;;12.20;3.55;;;26.30;60.40;;;;;;5022923;28;20100;-70
2021/08/02 03:17:47;;;;;;;17.73;4.47;;;26.20;60.60;;;;;;5028232;28;20109;-69
2021/08/02 03:20:14;;;;;;;15.43;3.78;;;26.20;60.50;;;;;;5027443;28;20412;-69
2021/08/02 03:22:52;;;;;;;21.50;4.22;;;26.20;60.50;;;;;;5016197;28;20044;-71
2021/08/02 03:25:33;;;;;;;16.45;3.83;;;26.30;60.50;;;;;;5016013;28;20038;-71
2021/08/02 03:28:10;;;;;;;13.68;4.10;;;26.20;60.30;;;;;;5016097;28;20026;-70
2021/08/02 03:30:39;;;;;;;16.90;4.45;;;26.20;60.50;;;;;;5016262;28;20022;-70
2021/08/02 03:33:15;;;;;;;20.05;4.68;;;26.20;60.70;;;;;;5016592;28;20022;-70
2021/08/02 03:35:47;;;;;;;17.17;4.32;;;26.10;60.40;;;;;;5016389;28;20057;-69
2021/08/02 03:38:15;;;;;;;15.25;4.65;;;26.10;61.00;;;;;;5015900;28;20029;-69
2021/08/02 03:40:42;;;;;;;16.17;4.05;;;26.00;61.20;;;;;;5015603;28;20462;-69
2021/08/02 03:43:08;;;;;;;15.73;3.70;;;26.10;61.20;;;;;;5015873;28;20022;-72
2021/08/02 03:45:34;;;;;;;14.32;4.32;;;26.10;61.00;;;;;;5015173;28;20109;-68
2021/08/02 03:48:02;;;;;;;21.02;3.95;;;26.10;61.00;;;;;;5018014;28;20143;-69
2021/08/02 03:50:28;;;;;;;15.10;3.80;;;26.10;61.00;;;;;;5035351;28;20033;-70
2021/08/02 03:52:54;;;;;;;18.13;3.92;;;26.10;61.00;;;;;;5035571;28;20116;-68
2021/08/02 03:55:23;;;;;;;17.45;4.25;;;26.10;61.00;;;;;;5021337;28;20030;-69
2021/08/02 03:57:49;;;;;;;19.77;5.38;;;26.10;61.10;;;;;;5015423;28;20113;-70
2021/08/02 04:00:15;;;;;;;20.17;4.93;;;26.00;61.20;;;;;;5014799;28;20414;-69
2021/08/02 04:02:41;;;;;;;23.20;5.50;;;26.00;61.30;;;;;;5015019;28;20137;-70
2021/08/02 04:05:07;;;;;;;18.60;4.53;;;26.00;61.40;;;;;;5015231;28;20105;-69
2021/08/02 04:07:32;;;;;;;16.20;4.47;;;26.00;61.40;;;;;;5015393;28;20022;-69
2021/08/02 04:09:58;;;;;;;21.52;4.50;;;26.00;61.40;;;;;;5015136;28;20022;-70
2021/08/02 04:12:24;;;;;;;22.33;4.20;;;25.90;61.40;;;;;;5015178;28;20064;-70
2021/08/02 04:14:49;;;;;;;18.38;4.22;;;25.90;61.50;;;;;;5029691;28;20196;-69
2021/08/02 04:17:15;;;;;;;17.50;4.50;;;25.90;61.50;;;;;;5035172;28;20018;-69
2021/08/02 04:19:41;;;;;;;20.08;4.68;;;25.90;61.60;;;;;;5034855;28;20099;-69
2021/08/02 04:22:06;;;;;;;21.10;4.63;;;25.90;61.70;;;;;;5034874;28;20072;-70
2021/08/02 04:24:32;;;;;;;16.77;4.10;;;25.90;61.60;;;;;;5034717;28;20026;-71
2021/08/02 04:26:58;;;;;;;18.08;4.03;;;25.90;61.70;;;;;;5034774;28;20057;-70
2021/08/02 04:29:23;;;;;;;16.17;4.43;;;25.90;61.60;;;;;;5034657;28;20021;-70
2021/08/02 04:31:49;;;;;;;19.35;4.47;;;25.90;61.60;;;;;;5034721;28;20032;-69
2021/08/02 04:34:15;;;;;;;20.55;4.82;;;25.90;61.70;;;;;;5034695;28;20105;-69
2021/08/02 04:36:40;;;;;;;18.00;4.53;;;25.90;61.30;;;;;;5034579;28;20053;-70
2021/08/02 04:39:06;;;;;;;16.40;4.40;;;26.00;61.60;;;;;;5034534;28;20416;-70
2021/08/02 04:41:32;;;;;;;14.20;4.18;;;26.10;61.30;;;;;;5034242;28;20026;-69
2021/08/02 04:43:57;;;;;;;20.48;4.68;;;26.10;61.10;;;;;;5034354;28;20100;-69
2021/08/02 04:46:23;;;;;;;21.00;4.15;;;26.20;61.00;;;;;;5034357;28;20037;-69
2021/08/02 04:48:49;;;;;;;16.23;4.25;;;26.20;60.90;;;;;;5033330;28;20101;-70
2021/08/02 04:51:14;;;;;;;15.63;4.43;;;26.10;60.90;;;;;;5034519;28;20047;-70
2021/08/02 04:53:40;;;;;;;19.13;4.35;;;26.10;61.00;;;;;;5034866;28;20029;-70
2021/08/02 04:56:06;;;;;;;25.45;5.28;;;26.00;61.10;;;;;;5034977;28;20030;-71
2021/08/02 04:58:33;;;;;;;17.50;3.97;;;26.00;61.70;;;;;;5034175;28;20148;-69
2021/08/02 05:00:59;;;;;;;17.70;4.75;;;26.10;61.90;;;;;;5034790;28;20049;-69
2021/08/02 05:03:24;;;;;;;16.60;4.43;;;26.10;61.50;;;;;;5034225;28;20099;-70
2021/08/02 05:05:53;;;;;;;21.05;4.97;;;26.10;61.30;;;;;;5034352;28;20034;-71
2021/08/02 05:08:19;;;;;;;16.60;3.90;;;26.20;61.50;;;;;;5033921;28;20021;-68
2021/08/02 05:10:44;;;;;;;17.42;3.92;;;26.10;61.40;;;;;;5033923;28;20037;-70
2021/08/02 05:13:10;;;;;;;16.13;3.85;;;26.20;61.50;;;;;;5034068;28;20022;-68
2021/08/02 05:15:36;;;;;;;16.65;4.57;;;26.20;61.30;;;;;;5033832;28;20067;-68
2021/08/02 05:18:01;;;;;;;24.88;4.40;;;26.30;61.50;;;;;;5033459;28;20473;-67
2021/08/02 05:20:27;;;;;;;16.05;4.20;;;26.30;61.50;;;;;;5032632;28;20022;-68
2021/08/02 05:22:53;;;;;;;18.85;4.13;;;26.40;60.50;;;;;;5033505;28;20075;-69
2021/08/02 05:25:19;;;;;;;17.13;4.18;;;26.50;60.20;;;;;;5032645;28;20065;-70
2021/08/02 05:27:49;;;;;;;16.75;4.28;;;26.70;59.80;;;;;;5015905;28;20018;-67
2021/08/02 05:30:15;;;;;;;19.92;3.67;;;27.00;58.90;;;;;;5033639;28;20026;-69
2021/08/02 05:32:41;;;;;;;14.60;4.07;;;27.30;58.20;;;;;;5033692;28;20097;-69
2021/08/02 05:35:07;;;;;;;20.90;4.72;;;27.50;57.60;;;;;;5033390;28;20111;-68
2021/08/02 05:37:33;;;;;;;18.25;4.00;;;27.50;57.50;;;;;;5033185;28;20028;-69
2021/08/02 05:39:59;;;;;;;16.23;4.22;;;27.40;57.40;;;;;;5048699;28;20025;-68
2021/08/02 05:42:24;;;;;;;18.83;4.45;;;27.50;58.60;;;;;;5033276;28;20102;-78
2021/08/02 05:44:50;;;;;;;14.95;3.70;;;27.70;58.30;;;;;;5033276;28;20117;-76
2021/08/02 05:47:18;;;;;;;16.15;3.60;;;27.90;57.80;;;;;;5033917;28;20040;-75
2021/08/02 05:49:43;;;;;;;21.73;4.18;;;28.00;57.50;;;;;;5033412;28;20036;-77
2021/08/02 05:52:09;;;;;;;20.42;4.03;;;28.00;57.30;;;;;;5033210;28;20029;-76
2021/08/02 05:54:35;;;;;;;19.65;4.18;;;28.10;57.20;;;;;;5033092;28;20024;-76
2021/08/02 05:57:01;;;;;;;15.38;3.53;;;28.20;57.10;;;;;;5033105;28;20432;-77
2021/08/02 05:59:27;;;;;;;18.55;4.40;;;28.50;56.30;;;;;;5033036;28;20101;-75
2021/08/02 06:01:53;;;;;;;13.35;3.97;;;28.90;55.60;;;;;;5015444;28;20423;-78
2021/08/02 06:04:19;;;;;;;21.10;4.05;;;29.30;54.90;;;;;;5033661;28;20060;-78
2021/08/02 06:06:44;;;;;;;17.77;4.78;;;29.50;54.40;;;;;;5033778;28;20072;-75
2021/08/02 06:09:11;;;;;;;20.85;4.07;;;29.80;53.80;;;;;;5039339;28;20449;-79
2021/08/02 06:11:37;;;;;;;21.13;4.22;;;30.10;53.50;;;;;;5042839;28;20053;-80
2021/08/02 06:14:04;;;;;;;18.00;4.55;;;30.30;52.80;;;;;;5050615;28;20140;-86
2021/08/02 06:16:29;;;;;;;20.23;3.75;;;30.60;52.40;;;;;;5034822;28;20021;-85
2021/08/02 06:18:57;;;;;;;14.85;4.10;;;30.80;51.70;;;;;;5033759;28;20037;-86
2021/08/02 06:21:22;;;;;;;27.63;4.68;;;31.00;51.50;;;;;;5015961;28;20022;-82
2021/08/02 06:23:48;;;;;;;13.43;3.58;;;31.20;50.90;;;;;;5033188;28;20033;-83
2021/08/02 06:26:13;;;;;;;17.90;4.88;;;31.40;50.70;;;;;;5033013;28;20106;-78
2021/08/02 06:28:39;;;;;;;17.02;4.22;;;31.50;50.20;;;;;;5015244;28;20072;-79
2021/08/02 06:31:05;;;;;;;15.15;3.55;;;31.70;50.10;;;;;;5032805;28;20555;-78
2021/08/02 06:33:31;;;;;;;16.67;3.28;;;31.80;50.20;;;;;;5035225;28;20362;-75
2021/08/02 06:35:56;;;;;;;32.78;4.68;;;31.80;50.40;;;;;;5036534;28;20160;-77
2021/08/02 06:38:22;;;;;;;32.83;5.07;;;31.90;49.50;;;;;;5037167;28;20017;-77
2021/08/02 06:40:48;;;;;;;14.15;3.35;;;32.10;49.30;;;;;;5036693;28;20109;-77
2021/08/02 06:43:14;;;;;;;19.15;3.35;;;32.10;48.90;;;;;;5018695;28;20449;-77
2021/08/02 06:45:42;;;;;;;14.63;3.42;;;32.20;49.10;;;;;;5036242;28;20100;-76
2021/08/02 06:48:09;;;;;;;11.88;3.65;;;32.10;49.10;;;;;;5036454;28;20097;-76
2021/08/02 06:50:35;;;;;;;16.63;4.05;;;32.20;49.00;;;;;;5036420;28;20034;-77
2021/08/02 06:53:01;;;;;;;20.08;4.40;;;32.40;49.50;;;;;;5036805;28;20025;-76
2021/08/02 06:55:26;;;;;;;13.85;3.92;;;32.40;49.50;;;;;;5036012;28;20071;-76
2021/08/02 06:57:52;;;;;;;20.75;4.68;;;32.50;49.30;;;;;;5036424;28;20053;-77
2021/08/02 07:00:18;;;;;;;16.13;4.22;;;32.50;49.40;;;;;;5036404;28;20088;-76
2021/08/02 07:02:44;;;;;;;14.07;3.65;;;32.60;49.30;;;;;;5036231;28;20102;-76
2021/08/02 07:05:10;;;;;;;16.42;4.10;;;32.60;49.30;;;;;;5036249;28;20052;-77
2021/08/02 07:07:36;;;;;;;17.55;4.10;;;32.70;48.90;;;;;;5035941;28;20454;-76
2021/08/02 07:10:03;;;;;;;14.23;3.60;;;32.80;49.00;;;;;;5018720;28;20116;-77
2021/08/02 07:12:28;;;;;;;15.25;4.07;;;32.80;48.80;;;;;;5036608;28;20029;-75
2021/08/02 07:14:54;;;;;;;19.48;5.00;;;32.90;48.60;;;;;;5035980;28;20486;-77
2021/08/02 07:17:20;;;;;;;17.80;3.92;;;32.80;48.70;;;;;;5018022;28;20029;-76
2021/08/02 07:19:45;;;;;;;18.75;3.90;;;32.50;48.90;;;;;;5035974;28;20056;-79
2021/08/02 07:22:11;;;;;;;15.82;4.20;;;32.40;49.50;;;;;;5034928;28;20083;-77
2021/08/02 07:24:37;;;;;;;29.13;4.93;;;32.20;49.90;;;;;;5035839;28;20362;-77
2021/08/02 07:27:03;;;;;;;17.10;4.05;;;32.00;50.00;;;;;;5035844;28;20385;-77
2021/08/02 07:29:29;;;;;;;25.67;4.50;;;32.10;49.70;;;;;;5035781;28;20083;-76
2021/08/02 07:31:54;;;;;;;16.73;4.53;;;32.20;49.60;;;;;;5035618;28;20473;-77
2021/08/02 07:34:20;;;;;;;14.70;4.30;;;32.20;49.50;;;;;;5035501;28;20481;-77
2021/08/02 07:36:46;;;;;;;17.58;4.93;;;32.30;49.30;;;;;;5035800;28;20097;-76
2021/08/02 07:39:12;;;;;;;15.32;3.40;;;32.10;49.40;;;;;;5035611;28;20119;-77
2021/08/02 07:41:37;;;;;;;19.40;3.72;;;32.10;49.60;;;;;;5035598;28;20022;-78
2021/08/02 07:44:03;;;;;;;15.02;3.97;;;32.00;49.80;;;;;;5034924;28;20047;-76
2021/08/02 07:46:31;;;;;;;26.23;4.80;;;31.80;49.50;;;;;;5035097;28;20375;-77
2021/08/02 07:48:57;;;;;;;19.17;4.30;;;31.60;50.10;;;;;;5035350;28;20045;-77
2021/08/02 07:51:22;;;;;;;15.73;3.88;;;31.50;50.20;;;;;;5035068;28;20503;-76
2021/08/02 07:53:49;;;;;;;20.25;4.22;;;31.50;49.90;;;;;;5035455;28;20092;-76
2021/08/02 07:56:14;;;;;;;27.17;5.13;;;31.60;50.00;;;;;;5035116;28;20105;-75
2021/08/02 07:58:40;;;;;;;15.50;3.58;;;31.70;49.70;;;;;;5017180;28;20112;-76
2021/08/02 08:01:06;;;;;;;13.23;3.88;;;31.70;49.50;;;;;;5035039;28;20025;-77
2021/08/02 08:03:32;;;;;;;21.40;4.10;;;31.70;49.30;;;;;;5034779;28;20017;-77
2021/08/02 08:05:57;;;;;;;25.33;4.88;;;31.70;49.50;;;;;;5035216;28;20037;-78
2021/08/02 08:08:23;;;;;;;22.20;4.13;;;31.60;49.60;;;;;;5035151;28;20057;-77
2021/08/02 08:10:49;;;;;;;12.60;4.07;;;31.70;49.90;;;;;;5034867;28;20021;-77
2021/08/02 08:13:15;;;;;;;15.38;3.70;;;31.70;50.00;;;;;;5034840;28;20033;-77
2021/08/02 08:15:41;;;;;;;18.13;3.90;;;31.60;50.20;;;;;;5034723;28;20099;-77
2021/08/02 08:18:07;;;;;;;28.23;5.07;;;31.60;49.90;;;;;;5034790;28;20021;-78
2021/08/02 08:20:33;;;;;;;20.63;3.92;;;31.60;49.80;;;;;;5034427;28;20134;-76
2021/08/02 08:22:59;;;;;;;32.25;4.75;;;31.50;49.80;;;;;;5035142;28;20442;-77
2021/08/02 08:25:25;;;;;;;21.42;4.40;;;31.50;49.90;;;;;;5034836;28;20037;-77
2021/08/02 08:27:51;;;;;;;19.38;4.07;;;31.50;49.90;;;;;;5034737;28;20029;-77
2021/08/02 08:30:19;;;;;;;24.38;4.57;;;31.40;49.50;;;;;;5034705;28;20053;-76
2021/08/02 08:32:44;;;;;;;18.80;4.05;;;31.40;49.80;;;;;;5016399;28;20129;-78
2021/08/02 08:35:11;;;;;;;20.40;4.72;;;31.30;49.90;;;;;;5034549;28;20032;-76
2021/08/02 08:37:38;;;;;;;18.70;4.60;;;31.20;49.80;;;;;;5016448;28;20022;-77
2021/08/02 08:40:06;;;;;;;38.50;7.80;;;31.10;50.20;;;;;;5034506;28;20540;-77
2021/08/02 08:42:32;;;;;;;22.13;5.43;;;31.10;50.00;;;;;;5034010;28;20433;-77
2021/08/02 08:44:58;;;;;;;19.55;3.85;;;31.00;50.40;;;;;;5034055;28;20040;-75
2021/08/02 08:47:24;;;;;;;25.55;4.38;;;31.00;50.30;;;;;;5034278;28;20033;-77
2021/08/02 08:49:50;;;;;;;18.60;4.05;;;31.00;50.50;;;;;;5033847;28;20017;-78
2021/08/02 08:52:16;;;;;;;13.35;3.80;;;30.90;50.00;;;;;;5033756;28;20081;-78
2021/08/02 08:54:44;;;;;;;21.23;4.90;;;30.90;50.40;;;;;;5033753;28;20377;-76
2021/08/02 08:57:13;;;;;;;14.73;4.10;;;30.80;49.30;;;;;;5034185;28;20037;-76
2021/08/02 08:59:54;;;;;;;17.90;3.60;;;30.80;50.90;;;;;;5034267;28;20032;-76
2021/08/02 09:02:26;;;;;;;27.20;4.88;;;30.80;50.50;;;;;;5035065;28;20082;-76
2021/08/02 09:04:57;;;;;;;17.73;3.45;;;30.70;50.90;;;;;;5034118;28;20031;-77
2021/08/02 09:07:43;;;;;;;19.02;4.20;;;30.60;50.90;;;;;;5034257;28;20031;-76
2021/08/02 09:10:11;;;;;;;13.35;3.83;;;30.60;50.90;;;;;;5033765;28;20053;-76
2021/08/02 09:12:50;;;;;;;18.30;4.20;;;30.60;51.20;;;;;;5033656;28;20174;-78
2021/08/02 09:15:16;;;;;;;15.70;4.32;;;30.60;50.00;;;;;;5033606;28;20053;-75
2021/08/02 09:17:42;;;;;;;13.73;3.58;;;30.50;51.10;;;;;;5033958;28;20032;-76
2021/08/02 09:20:19;;;;;;;20.17;4.40;;;30.50;51.20;;;;;;5033687;28;20029;-76
2021/08/02 09:22:45;;;;;;;11.45;3.72;;;30.60;50.90;;;;;;5033487;28;20025;-78
2021/08/02 09:25:15;;;;;;;14.05;3.63;;;30.60;51.00;;;;;;5033341;28;20036;-78
2021/08/02 09:27:43;;;;;;;17.55;3.88;;;30.60;51.10;;;;;;5033699;28;20025;-77
2021/08/02 09:30:17;;;;;;;19.70;3.83;;;30.60;51.30;;;;;;5033482;28;20018;-76
2021/08/02 09:32:49;;;;;;;11.70;3.55;;;30.60;50.90;;;;;;5033228;28;20504;-76
2021/08/02 09:35:33;;;;;;;14.75;3.33;;;30.60;49.90;;;;;;5033271;28;20106;-76
2021/08/02 09:38:05;;;;;;;13.98;3.35;;;30.60;49.70;;;;;;5033420;28;20036;-75
2021/08/02 09:40:44;;;;;;;15.07;3.30;;;30.70;50.70;;;;;;5033047;28;20367;-77
2021/08/02 09:43:16;;;;;;;12.25;3.28;;;30.70;49.40;;;;;;5033399;28;20326;-76
2021/08/02 09:45:53;;;;;;;11.50;3.72;;;30.80;50.60;;;;;;5032887;28;20037;-77
2021/08/02 09:48:20;;;;;;;12.15;3.58;;;30.80;49.40;;;;;;5033181;28;20064;-76
2021/08/02 09:50:49;;;;;;;18.40;3.63;;;30.80;50.40;;;;;;5032857;28;20029;-76
2021/08/02 09:53:17;;;;;;;15.57;3.28;;;30.80;50.30;;;;;;5033054;28;20493;-76
2021/08/02 09:55:46;;;;;;;10.50;2.90;;;30.80;50.10;;;;;;5033125;28;20021;-76
2021/08/02 09:58:21;;;;;;;24.33;4.07;;;30.70;50.20;;;;;;5032818;28;20030;-75
2021/08/02 10:00:47;;;;;;;11.60;3.10;;;30.70;48.90;;;;;;5032827;28;20021;-76
2021/08/02 10:03:16;;;;;;;16.60;3.58;;;30.70;50.40;;;;;;5033027;28;20047;-75
2021/08/02 10:05:42;;;;;;;16.63;3.78;;;30.70;50.00;;;;;;5015020;28;20037;-76
2021/08/02 10:08:08;;;;;;;13.88;3.40;;;30.70;50.20;;;;;;5032411;28;20446;-77
2021/08/02 10:10:38;;;;;;;8.80;3.03;;;30.70;50.20;;;;;;5032721;28;20022;-76
2021/08/02 10:13:05;;;;;;;12.48;3.60;;;30.70;50.20;;;;;;5032589;28;20037;-76
2021/08/02 10:15:32;;;;;;;13.57;3.70;;;30.70;50.00;;;;;;5032645;28;20112;-76
2021/08/02 10:18:01;;;;;;;8.65;3.00;;;30.60;50.10;;;;;;5032591;28;20105;-76
2021/08/02 10:20:33;;;;;;;11.45;3.47;;;30.70;50.20;;;;;;5032712;28;20053;-77
2021/08/02 10:23:00;;;;;;;14.77;3.17;;;30.70;50.00;;;;;;5032418;28;20043;-76
2021/08/02 10:25:41;;;;;;;14.38;6.55;;;30.70;50.20;;;;;;5032431;28;20033;-75
2021/08/02 10:28:18;;;;;;;11.38;3.70;;;30.80;49.80;;;;;;5032171;28;20446;-76
2021/08/02 10:31:00;;;;;;;22.10;3.20;;;30.80;48.40;;;;;;5014503;28;20132;-76
2021/08/02 10:33:39;;;;;;;12.02;3.60;;;30.80;49.70;;;;;;5032624;28;20367;-76
2021/08/02 10:36:31;;;;;;;14.38;3.10;;;30.80;49.70;;;;;;5032573;28;20022;-77
2021/08/02 10:38:57;;;;;;;10.02;2.97;;;30.80;49.00;;;;;;5030714;28;20041;-76
2021/08/02 10:41:25;;;;;;;9.32;3.13;;;30.80;49.10;;;;;;5032787;28;20033;-75
2021/08/02 10:43:51;;;;;;;11.45;3.15;;;30.70;49.40;;;;;;5033613;28;20112;-75
2021/08/02 10:46:22;;;;;;;11.38;2.85;;;30.70;49.40;;;;;;5032473;28;20100;-77
2021/08/02 10:48:51;;;;;;;13.98;3.25;;;30.70;47.90;;;;;;5032690;28;20053;-77
2021/08/02 10:51:23;;;;;;;12.50;3.05;;;30.70;49.50;;;;;;5014765;28;20036;-75
2021/08/02 10:53:57;;;;;;;8.52;2.78;;;30.80;47.50;;;;;;5032627;28;20096;-76
2021/08/02 10:56:31;;;;;;;11.30;2.83;;;30.80;48.90;;;;;;5032979;28;20049;-77
2021/08/02 10:58:59;;;;;;;11.50;2.70;;;30.80;46.80;;;;;;5032988;28;20018;-78
2021/08/02 11:01:28;;;;;;;12.82;2.80;;;30.80;48.70;;;;;;5032506;28;20025;-77
2021/08/02 11:04:09;;;;;;;9.80;2.45;;;30.70;48.50;;;;;;5032764;28;20030;-77
2021/08/02 11:06:36;;;;;;;14.52;3.25;;;30.70;48.40;;;;;;5032571;28;20041;-76
2021/08/02 11:09:02;;;;;;;18.92;3.33;;;30.60;48.50;;;;;;5032547;28;20083;-77
2021/08/02 11:11:34;;;;;;;17.92;3.13;;;30.60;48.40;;;;;;5032832;28;20026;-75
2021/08/02 11:14:17;;;;;;;9.00;3.05;;;30.60;46.60;;;;;;5030251;28;20072;-77
2021/08/02 11:16:46;;;;;;;13.57;3.33;;;30.60;46.50;;;;;;5032553;28;20366;-77
2021/08/02 11:19:32;;;;;;;12.00;2.55;;;30.80;48.10;;;;;;5033891;28;20108;-75
2021/08/02 11:22:06;;;;;;;10.43;2.70;;;30.90;47.60;;;;;;5035795;28;20048;-76
2021/08/02 11:24:35;;;;;;;9.90;2.60;;;30.90;46.10;;;;;;5035794;28;20041;-77
2021/08/02 11:27:03;;;;;;;7.75;2.47;;;30.90;47.30;;;;;;5035802;28;20052;-76
2021/08/02 11:29:31;;;;;;;9.20;2.85;;;31.00;47.20;;;;;;5035689;28;20030;-76
2021/08/02 11:32:03;;;;;;;11.13;2.92;;;31.00;47.30;;;;;;5035488;28;20100;-75
2021/08/02 11:34:29;;;;;;;8.90;2.50;;;31.00;47.20;;;;;;5035819;28;20034;-77
2021/08/02 11:37:10;;;;;;;9.90;2.78;;;31.10;47.00;;;;;;5035872;28;20014;-77
2021/08/02 11:39:38;;;;;;;9.07;2.70;;;31.20;44.70;;;;;;5035882;28;20029;-76
2021/08/02 11:42:11;;;;;;;11.02;2.40;;;31.20;46.60;;;;;;5035706;28;20022;-76
2021/08/02 11:44:38;;;;;;;;;;;31.30;46.60;;;;;;5038207;28;20037;-77
2021/08/02 11:47:07;;;;;;;9.15;2.42;;;31.30;45.50;;;;;;5042832;28;20476;-76
2021/08/02 11:49:38;;;;;;;8.68;2.28;;;31.30;45.90;;;;;;5036084;28;20026;-75
2021/08/02 11:52:05;;;;;;;8.10;2.55;;;31.40;45.70;;;;;;5017313;28;20033;-76
2021/08/02 11:54:31;;;;;;;11.18;2.67;;;31.40;46.00;;;;;;5035546;28;20112;-76
2021/08/02 11:56:58;;;;;;;8.63;2.63;;;31.40;45.50;;;;;;5035486;28;20029;-76
2021/08/02 11:59:26;;;;;;;12.00;3.15;;;31.50;46.20;;;;;;5035495;28;20433;-77
2021/08/02 12:01:54;;;;;;;18.27;3.30;;;31.50;45.60;;;;;;5035026;28;20036;-78
2021/08/02 12:04:22;;;;;;;16.50;3.70;;;31.50;45.70;;;;;;5035274;28;20087;-77
2021/08/02 12:06:57;;;;;;;15.07;2.58;;;31.60;45.70;;;;;;5034966;28;20044;-78
2021/08/02 12:09:34;;;;;;;18.65;2.67;;;31.60;43.70;;;;;;5035030;28;20028;-77
2021/08/02 12:12:07;;;;;;;10.27;2.80;;;31.70;45.70;;;;;;5034998;28;20037;-76
2021/08/02 12:14:34;;;;;;;9.80;2.38;;;31.80;44.50;;;;;;5034775;28;20044;-78
2021/08/02 12:17:11;;;;;;;11.85;2.60;;;31.80;44.70;;;;;;5034869;28;20032;-75
2021/08/02 12:19:51;;;;;;;12.90;2.42;;;31.80;42.80;;;;;;5034976;28;20025;-78
2021/08/02 12:22:20;;;;;;;13.27;2.67;;;31.80;42.70;;;;;;5016627;28;20458;-76
2021/08/02 12:24:53;;;;;;;9.75;2.55;;;31.80;43.20;;;;;;5034496;28;20026;-77
2021/08/02 12:27:19;;;;;;;;;;;31.80;43.60;;;;;;5035469;28;20429;-77
2021/08/02 12:30:13;;;;;;;10.10;2.38;;;31.80;41.40;;;;;;5034981;28;19905;-78
2021/08/02 12:32:40;;;;;;;10.95;2.70;;;31.80;42.10;;;;;;5034731;28;20080;-78
2021/08/02 12:35:09;;;;;;;6.32;2.53;;;31.90;41.70;;;;;;5034376;28;20034;-76
2021/08/02 12:37:35;;;;;;;12.25;2.25;;;31.90;41.80;;;;;;5034212;28;20036;-77
2021/08/02 12:40:01;;;;;;;8.23;2.30;;;32.00;41.30;;;;;;5034718;28;20026;-77
2021/08/02 12:42:27;;;;;;;14.05;2.90;;;32.00;41.10;;;;;;5034253;28;20108;-76
2021/08/02 12:44:54;;;;;;;11.93;2.17;;;32.00;41.10;;;;;;5034318;28;20029;-77
2021/08/02 12:47:21;;;;;;;9.02;2.72;;;32.00;40.30;;;;;;5034363;28;20058;-80
2021/08/02 12:49:47;;;;;;;7.70;2.45;;;32.10;40.60;;;;;;5034530;28;20029;-78
2021/08/02 12:52:14;;;;;;;9.88;2.55;;;32.10;40.10;;;;;;5034160;28;20049;-77